• Join FlightAware (Why Join?)
  • Login
  • US Flag 
06:01PM EDT


 

Airport Tracker/Info


-or-


 

Live Flight TrackerFlight Track Log ✈ N475DA ✈ 08-May-2013 ✈ KSFB - KSFB

Flight Track Log - Related Links

Times and Time Zones

All times are in EDT time to prevent confusion due to time zone crossing. See the N475DA flight status page for this flight to view local times or setup timezone preferences in your user account.

Time Position Orientation Groundspeed Altitude Reporting Facility
EDT Latitude Longitude Course Direction KTS MPH feet Rate Location/Type
05:48PM 28.7833 -81.2667 300° West 107 123 600  Level Orlando TRACON
05:49PM 28.8000 -81.3000 300° West 94 108 1,500 660 Climbing Orlando TRACON
05:50PM 28.8333 -81.3167 336° Northwest 108 124 2,200 600 Climbing Orlando TRACON
05:51PM 28.8500 -81.2833 60° Northeast 116 133 2,700 240 Climbing Orlando TRACON
05:53PM 28.8672 -81.2189 73° East 126 145 3,000 60 Climbing Jacksonville Center
05:54PM 28.8878 -81.1781 60° Northeast 139 160 2,900 -60 Descending Jacksonville Center
05:55PM 28.9081 -81.1444 55° Northeast 140 161 2,900 -60 Level Jacksonville Center
05:56PM 28.9244 -81.1133 59° Northeast 128 147 2,800  Descending Jacksonville Center
05:57PM 28.9447 -81.0728 60° Northeast 124 143 3,000  Climbing Jacksonville Center
05:58PM 28.9781 -81.0650 12° North 126 145 2,900 -300 Descending Jacksonville Center
05:59PM 29.0133 -81.0619 North 125 144 2,400 -540 Descending Jacksonville Center
06:00PM 29.0386 -81.0664 351° North 115 132 2,000 -300 Descending Jacksonville Center
06:01PM 29.0494 -81.1039 288° West 100 115 1,900 -240 Descending Jacksonville Center
06:02PM 29.0583 -81.1372 287° West 110 127 1,500 -240 Descending Jacksonville Center
06:03PM 29.0650 -81.1656 285° West 100 115 1,500  Level Jacksonville Center
06:04PM 29.0694 -81.1939 280° West 99 114 1,600  Climbing Jacksonville Center
06:05PM 29.0864 -81.2197 307° West 108 124 1,500 -60 Descending Jacksonville Center
06:06PM 29.1156 -81.2144 North 118 136 1,500  Level Jacksonville Center
06:07PM 29.1297 -81.1811 64° Northeast 121 139 1,500 -120 Level Jacksonville Center
06:08PM 29.1461 -81.1475 61° Northeast 113 130 1,300 -480 Descending Jacksonville Center
06:09PM 29.1581 -81.1139 68° East 110 127 600 -420 Descending Jacksonville Center
06:10PM 29.1703 -81.0828 66° East 110 127 500 240 Descending Jacksonville Center
06:11PM 29.1822 -81.0542 64° Northeast 112 129 1,200 600 Climbing Jacksonville Center
06:12PM 29.1775 -81.0089 97° East 127 146 1,800 300 Climbing Jacksonville Center
06:13PM 29.1503 -81.0047 172° South 113 130 1,900 60 Climbing Jacksonville Center
06:14PM 29.1233 -81.0100 190° South 111 128 2,000  Climbing Jacksonville Center
06:15PM 29.1069 -81.0411 239° Southwest 108 124 2,000 -60 Level Jacksonville Center
06:16PM 29.0908 -81.0725 240° Southwest 113 130 1,900  Descending Jacksonville Center
06:17PM 29.0767 -81.1011 240° Southwest 106 122 2,000  Climbing Jacksonville Center
06:18PM 29.0728 -81.1344 262° West 104 120 1,900 -60 Descending Jacksonville Center
06:19PM 29.0817 -81.1653 288° West 98 113 1,900  Level Jacksonville Center
06:20PM 29.0842 -81.1936 276° West 104 120 1,900  Level Jacksonville Center
06:21PM 29.1094 -81.2147 324° Northwest 109 125 1,900 -240 Level Jacksonville Center
06:23PM 29.1319 -81.1858 48° Northeast 129 148 1,400 -240 Descending Jacksonville Center
06:23PM 29.1400 -81.1547 73° East 118 136 1,500 -360 Climbing Jacksonville Center
06:24PM 29.1519 -81.1261 64° Northeast 109 125 800 -480 Descending Jacksonville Center
06:25PM 29.1642 -81.0925 67° East 107 123 600 120 Descending Jacksonville Center
06:26PM 29.1783 -81.0683 56° Northeast 115 132 1,100 660 Climbing Jacksonville Center
06:27PM 29.1800 -81.0303 87° East 113 130 1,900 420 Climbing Jacksonville Center
06:28PM 29.1586 -81.0044 133° Southeast 119 137 2,000  Climbing Jacksonville Center
06:29PM 29.1294 -81.0122 193° South 114 131 1,900  Descending Jacksonville Center
06:30PM 29.1153 -81.0411 241° Southwest 97 112 2,000  Climbing Jacksonville Center
06:31PM 29.1011 -81.0744 244° Southwest 109 125 2,000 -60 Level Jacksonville Center
06:33PM 29.0914 -81.1081 252° West 105 121 1,900 -240 Descending Jacksonville Center
06:34PM 29.0939 -81.1414 275° West 106 122 1,600 -240 Descending Jacksonville Center
06:35PM 29.0964 -81.1722 275° West 102 117 1,500  Descending Jacksonville Center
06:36PM 29.1031 -81.2006 285° West 101 116 1,600  Climbing Jacksonville Center
06:37PM 29.1278 -81.1906 19° North 119 137 1,600  Level Jacksonville Center